Time;durP1;ratioP1;P1;durP2;ratioP2;P2;SDS_P1;SDS_P2;PMS_P1;PMS_P2;Temp;Humidity;BMP_temperature;BMP_pressure;BME280_temperature;BME280_humidity;BME280_pressure;Samples;Min_cycle;Max_cycle;Signal;HPM_P1;HPM_P2
2023/02/17 00:00:23;;;;;;;84.45;53.15;;;9.70;99.90;;;;;;5063453;28;20571;-72
2023/02/17 00:02:57;;;;;;;86.13;56.92;;;9.70;99.90;;;;;;5058091;28;20203;-72
2023/02/17 00:05:27;;;;;;;84.32;52.05;;;9.70;99.90;;;;;;5063488;28;20198;-73
2023/02/17 00:07:54;;;;;;;76.78;50.97;;;9.70;99.90;;;;;;5060588;28;20584;-73
2023/02/17 00:10:21;;;;;;;69.82;51.40;;;9.70;99.90;;;;;;5061610;28;20254;-72
2023/02/17 00:12:48;;;;;;;76.05;49.85;;;9.80;99.90;;;;;;5061993;28;20203;-74
2023/02/17 00:15:18;;;;;;;85.55;54.28;;;9.80;99.90;;;;;;5072961;28;20198;-73
2023/02/17 00:17:45;;;;;;;82.82;49.67;;;9.80;99.90;;;;;;5068281;28;20193;-73
2023/02/17 00:20:16;;;;;;;86.03;52.33;;;9.70;99.90;;;;;;5055289;28;20278;-73
2023/02/17 00:22:43;;;;;;;83.60;50.17;;;9.80;99.90;;;;;;5072798;28;20616;-74
2023/02/17 00:25:10;;;;;;;70.35;48.90;;;9.80;99.90;;;;;;5072549;28;20280;-73
2023/02/17 00:27:37;;;;;;;70.60;48.13;;;9.80;99.90;;;;;;5072369;28;20206;-72
2023/02/17 00:30:06;;;;;;;76.30;48.53;;;9.80;99.90;;;;;;5071187;28;20211;-74
2023/02/17 00:32:32;;;;;;;67.30;43.20;;;9.80;99.90;;;;;;5067887;28;20660;-74
2023/02/17 00:35:00;;;;;;;63.03;42.63;;;9.80;99.90;;;;;;5066029;28;20199;-74
2023/02/17 00:37:28;;;;;;;62.35;43.67;;;9.80;99.90;;;;;;5071165;28;20236;-72
2023/02/17 00:39:55;;;;;;;68.38;43.95;;;9.80;99.90;;;;;;5059828;28;20304;-74
2023/02/17 00:42:22;;;;;;;64.68;46.30;;;9.80;99.90;;;;;;5058828;28;20270;-71
2023/02/17 00:44:51;;;;;;;59.97;42.33;;;9.90;99.90;;;;;;5059841;28;20226;-71
2023/02/17 00:47:18;;;;;;;62.17;41.15;;;9.80;99.90;;;;;;5057134;28;20639;-74
2023/02/17 00:49:45;;;;;;;65.65;43.10;;;9.90;99.90;;;;;;5057481;28;20261;-72
2023/02/17 00:52:12;;;;;;;65.60;42.45;;;9.90;99.90;;;;;;5061407;28;20306;-72
2023/02/17 00:54:40;;;;;;;69.80;42.13;;;9.80;99.90;;;;;;5057026;28;20678;-71
2023/02/17 00:57:07;;;;;;;71.07;44.30;;;9.90;99.90;;;;;;5061724;28;20647;-73
2023/02/17 00:59:35;;;;;;;64.93;43.55;;;9.80;99.90;;;;;;5062866;28;20253;-72
2023/02/17 01:02:02;;;;;;;71.18;43.22;;;9.90;99.90;;;;;;5058513;28;20230;-73
2023/02/17 01:04:29;;;;;;;62.40;43.00;;;9.90;99.90;;;;;;5061973;28;20295;-72
2023/02/17 01:06:56;;;;;;;58.92;39.13;;;9.90;99.90;;;;;;5057279;28;20686;-73
2023/02/17 01:09:24;;;;;;;63.88;43.80;;;9.90;99.90;;;;;;5060017;28;20220;-72
2023/02/17 01:11:52;;;;;;;55.60;38.90;;;9.90;99.90;;;;;;5067175;28;20224;-75
2023/02/17 01:14:19;;;;;;;56.25;37.50;;;10.00;99.90;;;;;;5065890;28;20795;-73
2023/02/17 01:16:48;;;;;;;51.50;37.55;;;10.00;99.90;;;;;;5069221;28;20242;-73
2023/02/17 01:19:17;;;;;;;62.50;38.83;;;10.00;99.90;;;;;;5070451;28;20634;-73
2023/02/17 01:21:44;;;;;;;57.55;38.53;;;9.90;99.90;;;;;;5066825;28;20654;-72
2023/02/17 01:24:12;;;;;;;59.33;39.78;;;9.90;99.90;;;;;;5067118;28;20201;-72
2023/02/17 01:26:39;;;;;;;59.80;37.45;;;10.00;99.90;;;;;;5062432;28;20616;-73
2023/02/17 01:29:08;;;;;;;55.72;38.03;;;10.00;99.90;;;;;;5070055;28;20286;-74
2023/02/17 01:31:35;;;;;;;56.50;36.45;;;10.00;99.90;;;;;;5069001;28;20222;-72
2023/02/17 01:34:04;;;;;;;59.40;39.35;;;10.00;99.90;;;;;;5062034;28;20269;-72
2023/02/17 01:36:31;;;;;;;55.83;39.13;;;10.00;99.90;;;;;;5068416;28;20334;-73
2023/02/17 01:38:59;;;;;;;56.55;37.80;;;10.00;99.90;;;;;;5073392;28;20206;-73
2023/02/17 01:41:27;;;;;;;53.58;36.75;;;10.00;99.90;;;;;;5065318;28;20231;-72
2023/02/17 01:44:17;;;;;;;56.42;38.63;;;10.00;99.90;;;;;;5072810;28;20226;-72
2023/02/17 01:46:46;;;;;;;56.58;39.35;;;10.00;99.90;;;;;;5070302;28;20254;-71
2023/02/17 01:49:22;;;;;;;55.05;37.55;;;10.00;99.90;;;;;;5070004;28;20287;-72
2023/02/17 01:51:54;;;;;;;58.40;39.47;;;10.00;99.90;;;;;;5071037;28;20220;-72
2023/02/17 01:54:26;;;;;;;59.45;38.65;;;10.00;99.90;;;;;;5060174;28;20226;-73
2023/02/17 01:56:57;;;;;;;60.78;39.63;;;10.00;99.90;;;;;;5072965;28;20653;-73
2023/02/17 01:59:26;;;;;;;54.42;37.95;;;10.10;99.90;;;;;;5066818;28;20293;-72
2023/02/17 02:01:56;;;;;;;55.65;36.40;;;10.10;99.90;;;;;;5057349;28;20358;-72
2023/02/17 02:04:31;;;;;;;54.38;39.83;;;10.10;99.90;;;;;;5065119;28;20296;-72
2023/02/17 02:06:59;;;;;;;56.97;36.50;;;10.10;99.90;;;;;;5071062;28;20208;-73
2023/02/17 02:09:32;;;;;;;54.15;39.08;;;10.10;99.90;;;;;;5066877;28;20230;-73
2023/02/17 02:12:00;;;;;;;54.05;37.38;;;10.20;99.90;;;;;;5071829;28;20270;-72
2023/02/17 02:14:30;;;;;;;54.53;38.72;;;10.10;99.90;;;;;;5072022;28;20283;-74
2023/02/17 02:17:13;;;;;;;59.88;36.28;;;10.10;99.90;;;;;;5070507;28;20196;-73
2023/02/17 02:20:35;;;;;;;52.03;34.83;;;10.10;99.90;;;;;;5066500;28;20831;-72
2023/02/17 02:23:24;;;;;;;58.75;36.08;;;10.20;99.90;;;;;;5012426;28;21099;-73
2023/02/17 02:26:33;;;;;;;60.97;35.33;;;10.10;99.90;;;;;;5072633;28;20213;-73
2023/02/17 02:29:25;;;;;;;61.92;36.95;;;10.20;99.90;;;;;;5052347;28;20220;-73
2023/02/17 02:32:09;;;;;;;65.32;35.15;;;10.10;99.90;;;;;;5069812;28;20252;-73
2023/02/17 02:34:46;;;;;;;64.97;37.63;;;10.10;99.90;;;;;;5046152;28;20617;-73
2023/02/17 02:37:17;;;;;;;63.47;37.38;;;10.10;99.90;;;;;;5073085;28;20243;-74
2023/02/17 02:39:48;;;;;;;62.10;40.45;;;10.10;99.90;;;;;;5066792;28;20288;-72
2023/02/17 02:42:21;;;;;;;66.35;39.92;;;10.10;99.90;;;;;;5062571;28;20266;-72
2023/02/17 02:44:48;;;;;;;65.22;37.53;;;10.10;99.90;;;;;;5073867;28;20203;-73
2023/02/17 02:47:45;;;;;;;58.05;36.65;;;10.10;99.90;;;;;;5070313;28;20203;-73
2023/02/17 02:50:16;;;;;;;63.00;37.10;;;10.10;99.90;;;;;;5061980;28;20228;-72
2023/02/17 02:52:51;;;;;;;61.42;37.35;;;10.10;99.90;;;;;;5063269;28;20262;-72
2023/02/17 02:55:25;;;;;;;76.43;39.00;;;10.20;99.90;;;;;;5054696;28;20287;-72
2023/02/17 02:58:00;;;;;;;67.30;37.45;;;10.20;99.90;;;;;;5064061;28;20538;-73
2023/02/17 03:00:35;;;;;;;62.58;38.05;;;10.20;99.90;;;;;;5058640;28;20277;-72
2023/02/17 03:03:08;;;;;;;63.15;36.47;;;10.20;99.90;;;;;;5059421;28;20203;-73
2023/02/17 03:05:46;;;;;;;64.85;38.10;;;10.20;99.90;;;;;;5055799;28;20367;-73
2023/02/17 03:08:17;;;;;;;61.15;36.83;;;10.30;99.90;;;;;;5057814;28;20230;-72
2023/02/17 03:10:46;;;;;;;61.50;38.72;;;10.20;99.90;;;;;;5054896;28;20256;-71
2023/02/17 03:13:13;;;;;;;60.33;37.72;;;10.20;99.90;;;;;;5057284;28;20574;-73
2023/02/17 03:15:40;;;;;;;72.85;38.00;;;10.20;99.90;;;;;;5060418;28;20295;-73
2023/02/17 03:18:07;;;;;;;65.47;38.10;;;10.20;99.90;;;;;;5056107;28;20201;-72
2023/02/17 03:20:39;;;;;;;62.28;35.33;;;10.20;99.90;;;;;;5056443;28;20294;-72
2023/02/17 03:23:07;;;;;;;72.72;38.53;;;10.20;99.90;;;;;;5064913;28;20248;-72
2023/02/17 03:25:35;;;;;;;68.25;38.80;;;10.10;99.90;;;;;;5060057;28;20286;-73
2023/02/17 03:28:02;;;;;;;64.00;34.78;;;10.20;99.90;;;;;;5069696;28;20198;-72
2023/02/17 03:30:30;;;;;;;70.32;37.42;;;10.20;99.90;;;;;;5056802;28;20313;-73
2023/02/17 03:32:57;;;;;;;65.25;36.17;;;10.10;99.90;;;;;;5057654;28;20200;-71
2023/02/17 03:35:24;;;;;;;65.28;35.42;;;10.20;99.90;;;;;;5066230;28;20286;-73
2023/02/17 03:37:52;;;;;;;56.08;35.03;;;10.10;99.90;;;;;;5065049;28;20207;-73
2023/02/17 03:40:19;;;;;;;64.30;36.95;;;10.20;99.90;;;;;;5068644;28;20318;-73
2023/02/17 03:42:46;;;;;;;59.03;36.22;;;10.20;99.90;;;;;;5072809;28;20197;-73
2023/02/17 03:45:13;;;;;;;55.80;34.33;;;10.20;99.90;;;;;;5071112;28;20204;-72
2023/02/17 03:47:40;;;;;;;57.88;35.30;;;10.20;99.90;;;;;;5063024;28;20227;-73
2023/02/17 03:50:09;;;;;;;49.55;32.90;;;10.20;99.90;;;;;;5064366;28;20567;-72
2023/02/17 03:52:36;;;;;;;56.08;33.45;;;10.20;99.90;;;;;;5059563;28;20268;-73
2023/02/17 03:55:05;;;;;;;51.58;33.10;;;10.20;99.90;;;;;;5060362;28;20210;-74
2023/02/17 03:57:33;;;;;;;49.67;31.33;;;10.20;99.90;;;;;;5061227;28;20206;-72
2023/02/17 04:00:00;;;;;;;51.35;29.90;;;10.20;99.90;;;;;;5058619;28;20282;-73
2023/02/17 04:02:27;;;;;;;57.55;33.17;;;10.20;99.90;;;;;;5058197;28;20311;-73
2023/02/17 04:04:54;;;;;;;49.80;30.02;;;10.20;99.90;;;;;;5064522;28;20204;-73
2023/02/17 04:07:21;;;;;;;49.25;31.52;;;10.20;99.90;;;;;;5057112;28;20290;-72
2023/02/17 04:09:48;;;;;;;47.33;29.98;;;10.20;99.90;;;;;;5065142;28;20206;-73
2023/02/17 04:12:16;;;;;;;44.75;29.88;;;10.20;99.90;;;;;;5059327;28;20421;-71
2023/02/17 04:14:43;;;;;;;45.97;31.98;;;10.30;99.90;;;;;;5068209;28;20236;-73
2023/02/17 04:17:10;;;;;;;48.67;31.15;;;10.30;99.90;;;;;;5069529;28;20271;-73
2023/02/17 04:19:38;;;;;;;46.38;29.65;;;10.30;99.90;;;;;;5059930;28;20245;-72
2023/02/17 04:22:07;;;;;;;50.65;27.25;;;10.30;99.90;;;;;;5067477;28;20302;-73
2023/02/17 04:24:36;;;;;;;43.63;27.65;;;10.30;99.90;;;;;;5071017;28;20673;-72
2023/02/17 04:27:03;;;;;;;45.75;28.55;;;10.30;99.90;;;;;;5073759;28;20208;-71
2023/02/17 04:29:35;;;;;;;49.97;29.40;;;10.30;99.90;;;;;;5064376;28;20295;-73
2023/02/17 04:32:02;;;;;;;47.92;31.23;;;10.30;99.90;;;;;;5071931;28;20782;-72
2023/02/17 04:34:30;;;;;;;48.45;29.27;;;10.30;99.90;;;;;;5060533;28;20634;-71
2023/02/17 04:36:56;;;;;;;50.72;30.83;;;10.40;99.90;;;;;;5058174;28;20249;-75
2023/02/17 04:39:23;;;;;;;51.50;31.77;;;10.30;99.90;;;;;;5066384;28;20289;-72
2023/02/17 04:41:50;;;;;;;43.63;28.00;;;10.40;99.90;;;;;;5060429;28;20251;-72
2023/02/17 04:44:18;;;;;;;44.17;26.58;;;10.40;99.90;;;;;;5061657;28;20204;-72
2023/02/17 04:46:46;;;;;;;46.88;29.45;;;10.30;99.90;;;;;;5063084;28;20207;-72
2023/02/17 04:49:15;;;;;;;42.30;29.13;;;10.50;99.90;;;;;;5068574;28;20234;-73
2023/02/17 04:51:42;;;;;;;43.80;29.23;;;10.40;99.90;;;;;;5067072;28;20226;-72
2023/02/17 04:54:09;;;;;;;49.40;30.83;;;10.40;99.90;;;;;;5067641;28;20215;-73
2023/02/17 04:56:36;;;;;;;46.78;26.75;;;10.40;99.90;;;;;;5066375;28;20201;-72
2023/02/17 04:59:03;;;;;;;45.28;27.33;;;10.40;99.90;;;;;;5078859;28;20640;-73
2023/02/17 05:01:30;;;;;;;43.17;27.98;;;10.40;99.90;;;;;;5067850;28;20308;-72
2023/02/17 05:04:04;;;;;;;48.60;29.30;;;10.50;99.90;;;;;;5060705;28;20289;-71
2023/02/17 05:06:31;;;;;;;40.97;27.17;;;10.50;99.90;;;;;;5073344;28;20201;-71
2023/02/17 05:08:59;;;;;;;51.55;31.98;;;10.50;99.90;;;;;;5065471;28;20225;-72
2023/02/17 05:11:26;;;;;;;44.05;27.70;;;10.50;99.90;;;;;;5067699;28;20221;-72
2023/02/17 05:13:57;;;;;;;47.25;28.60;;;10.50;99.90;;;;;;5067289;28;20228;-73
2023/02/17 05:16:24;;;;;;;49.55;29.38;;;10.50;99.90;;;;;;5073829;28;20204;-71
2023/02/17 05:18:52;;;;;;;48.00;28.58;;;10.50;99.90;;;;;;5059833;28;20202;-71
2023/02/17 05:21:21;;;;;;;49.97;30.70;;;10.50;99.90;;;;;;5071967;28;20314;-72
2023/02/17 05:23:48;;;;;;;39.28;27.60;;;10.50;99.90;;;;;;5064018;28;20280;-71
2023/02/17 05:26:14;;;;;;;47.58;29.35;;;10.50;99.90;;;;;;5070981;28;20279;-73
2023/02/17 05:28:42;;;;;;;49.88;31.42;;;10.60;99.90;;;;;;5063410;28;20229;-71
2023/02/17 05:31:09;;;;;;;49.30;30.60;;;10.50;99.90;;;;;;5067077;28;20234;-72
2023/02/17 05:33:38;;;;;;;44.55;29.13;;;10.60;99.90;;;;;;5066534;28;20243;-72
2023/02/17 05:36:08;;;;;;;50.08;30.33;;;10.60;99.90;;;;;;5070851;28;20290;-72
2023/02/17 05:38:40;;;;;;;45.58;29.13;;;10.60;99.90;;;;;;5073818;28;20293;-72
2023/02/17 05:41:19;;;;;;;45.70;30.35;;;10.60;99.90;;;;;;5057631;28;20224;-73
2023/02/17 05:43:47;;;;;;;48.25;30.40;;;10.60;99.90;;;;;;5062058;28;20283;-73
2023/02/17 05:46:14;;;;;;;44.33;29.27;;;10.60;99.90;;;;;;5073290;28;20284;-73
2023/02/17 05:48:41;;;;;;;46.92;30.85;;;10.70;99.90;;;;;;5066869;28;20308;-72
2023/02/17 05:51:08;;;;;;;46.70;27.42;;;10.60;99.90;;;;;;5073665;28;20229;-71
2023/02/17 05:53:35;;;;;;;46.53;31.00;;;10.70;99.90;;;;;;5073474;28;20294;-73
2023/02/17 05:56:04;;;;;;;43.50;27.90;;;10.70;99.90;;;;;;5059327;28;20202;-73
2023/02/17 05:58:31;;;;;;;44.00;26.90;;;10.70;99.90;;;;;;5071961;28;20728;-72
2023/02/17 06:00:59;;;;;;;45.08;28.27;;;10.70;99.90;;;;;;5064230;28;20217;-72
2023/02/17 06:03:26;;;;;;;38.47;27.52;;;10.70;99.90;;;;;;5063603;28;20208;-73
2023/02/17 06:05:53;;;;;;;41.85;28.80;;;10.70;99.90;;;;;;5068132;28;20285;-72
2023/02/17 06:08:20;;;;;;;40.33;26.33;;;10.70;99.90;;;;;;5062306;28;20295;-73
2023/02/17 06:10:47;;;;;;;37.38;23.73;;;10.70;99.90;;;;;;5061406;28;20251;-73
2023/02/17 06:13:15;;;;;;;37.10;25.40;;;10.70;99.90;;;;;;5065508;28;20633;-71
2023/02/17 06:15:42;;;;;;;36.92;25.75;;;10.70;99.90;;;;;;5066445;28;20290;-73
2023/02/17 06:18:09;;;;;;;34.65;23.52;;;10.70;99.90;;;;;;5055919;28;20203;-73
2023/02/17 06:20:36;;;;;;;35.08;25.00;;;10.70;99.90;;;;;;5057607;28;20308;-72
2023/02/17 06:23:03;;;;;;;36.95;25.00;;;10.70;99.90;;;;;;5059352;28;20666;-73
2023/02/17 06:25:30;;;;;;;37.22;24.15;;;10.70;99.90;;;;;;5073420;28;20235;-75
2023/02/17 06:27:57;;;;;;;31.38;20.67;;;10.80;99.90;;;;;;5069315;28;20194;-72
2023/02/17 06:30:26;;;;;;;33.38;23.20;;;10.70;99.90;;;;;;5062781;28;20694;-71
2023/02/17 06:32:53;;;;;;;34.38;21.23;;;10.70;99.90;;;;;;5068925;28;20223;-72
2023/02/17 06:35:20;;;;;;;29.63;21.08;;;10.70;99.90;;;;;;5072680;28;20236;-72
2023/02/17 06:37:48;;;;;;;30.55;21.65;;;10.80;99.90;;;;;;5072662;28;20288;-72
2023/02/17 06:40:15;;;;;;;32.33;22.42;;;10.80;99.90;;;;;;5058531;28;20289;-71
2023/02/17 06:42:42;;;;;;;33.33;20.45;;;10.80;99.90;;;;;;5059441;28;20192;-72
2023/02/17 06:45:09;;;;;;;34.63;22.70;;;10.80;99.90;;;;;;5063658;28;20196;-71
2023/02/17 06:47:38;;;;;;;32.88;22.67;;;10.80;99.90;;;;;;5055767;28;20240;-73
2023/02/17 06:50:06;;;;;;;30.80;21.10;;;10.80;99.90;;;;;;5056961;28;20205;-73
2023/02/17 06:52:33;;;;;;;31.85;21.80;;;10.90;99.90;;;;;;5057231;28;20673;-72
2023/02/17 06:55:00;;;;;;;27.45;20.73;;;10.80;99.90;;;;;;5059551;28;20292;-73
2023/02/17 06:57:27;;;;;;;27.83;20.08;;;10.80;99.90;;;;;;5070328;28;20209;-72
2023/02/17 06:59:54;;;;;;;32.42;21.27;;;10.80;99.90;;;;;;5064485;28;20193;-72
2023/02/17 07:02:21;;;;;;;28.75;20.08;;;10.80;99.90;;;;;;5055375;28;20254;-71
2023/02/17 07:04:49;;;;;;;32.97;21.88;;;10.70;99.90;;;;;;5071803;28;20205;-73
2023/02/17 07:07:17;;;;;;;31.83;21.38;;;10.70;99.90;;;;;;5075340;28;20216;-72
2023/02/17 07:09:44;;;;;;;27.67;18.13;;;10.70;99.90;;;;;;5068209;28;20616;-72
2023/02/17 07:12:11;;;;;;;30.77;21.95;;;10.80;99.90;;;;;;5059689;28;20222;-73
2023/02/17 07:14:38;;;;;;;33.67;19.15;;;10.70;99.90;;;;;;5063216;28;20248;-73
2023/02/17 07:17:06;;;;;;;32.13;20.63;;;10.70;99.90;;;;;;5060699;28;20691;-73
2023/02/17 07:19:32;;;;;;;27.92;18.70;;;10.70;99.90;;;;;;5072333;28;20294;-71
2023/02/17 07:22:01;;;;;;;35.38;21.45;;;10.60;99.90;;;;;;5060601;28;20299;-72
2023/02/17 07:24:28;;;;;;;33.10;19.67;;;10.70;99.90;;;;;;5067999;28;20243;-72
2023/02/17 07:26:55;;;;;;;30.40;20.25;;;10.70;99.90;;;;;;5068319;28;20228;-72
2023/02/17 07:29:22;;;;;;;31.52;20.95;;;10.70;99.90;;;;;;5065454;28;20241;-72
2023/02/17 07:31:49;;;;;;;36.08;20.73;;;10.70;99.90;;;;;;5057966;28;20224;-72
2023/02/17 07:34:16;;;;;;;30.85;19.00;;;10.60;99.90;;;;;;5068749;28;20290;-72
2023/02/17 07:36:43;;;;;;;29.75;18.65;;;10.70;99.90;;;;;;5061556;28;20200;-72
2023/02/17 07:39:11;;;;;;;31.35;21.38;;;10.70;99.90;;;;;;5066540;28;20206;-75
2023/02/17 07:41:38;;;;;;;31.10;18.23;;;10.60;99.90;;;;;;5060626;28;20234;-74
2023/02/17 07:44:05;;;;;;;31.70;19.13;;;10.60;99.90;;;;;;5075034;28;20285;-71
2023/02/17 07:46:32;;;;;;;30.92;19.77;;;10.60;99.90;;;;;;5059727;28;20199;-71
2023/02/17 07:49:00;;;;;;;27.10;18.50;;;10.60;99.90;;;;;;5063135;28;20196;-73
2023/02/17 07:51:28;;;;;;;27.35;18.13;;;10.50;99.90;;;;;;5064810;28;20310;-71
2023/02/17 07:53:56;;;;;;;25.30;17.45;;;10.60;99.90;;;;;;5069810;28;20226;-73
2023/02/17 07:56:24;;;;;;;28.27;18.60;;;10.60;99.90;;;;;;5060308;28;20203;-71
2023/02/17 07:58:51;;;;;;;29.40;17.25;;;10.60;99.90;;;;;;5059248;28;20265;-74
2023/02/17 08:01:21;;;;;;;25.95;17.15;;;10.60;99.90;;;;;;5063469;28;20233;-75
2023/02/17 08:03:49;;;;;;;28.48;19.02;;;10.60;99.90;;;;;;5071171;28;20197;-75
2023/02/17 08:06:18;;;;;;;29.95;18.55;;;10.60;99.90;;;;;;5061558;28;20282;-73
2023/02/17 08:14:17;;;;;;;26.65;15.85;;;10.50;99.90;;;;;;5061742;28;20203;-74
2023/02/17 08:16:52;;;;;;;25.27;15.65;;;10.50;99.90;;;;;;5064351;28;20202;-72
2023/02/17 08:19:19;;;;;;;25.85;16.63;;;10.50;99.90;;;;;;5072880;28;20271;-72
2023/02/17 08:21:48;;;;;;;27.63;17.58;;;10.50;99.90;;;;;;5070386;28;20304;-72
2023/02/17 08:24:16;;;;;;;37.03;18.05;;;10.60;99.90;;;;;;5066746;28;20228;-70
2023/02/17 08:26:46;;;;;;;24.65;15.68;;;10.60;99.90;;;;;;5061863;28;20631;-72
2023/02/17 08:29:13;;;;;;;25.17;16.05;;;10.60;99.90;;;;;;5071009;28;20240;-73
2023/02/17 08:31:41;;;;;;;22.73;14.40;;;10.50;99.90;;;;;;5075849;28;20234;-72
2023/02/17 08:34:18;;;;;;;28.15;15.98;;;10.50;99.90;;;;;;5074871;28;20298;-74
2023/02/17 08:36:45;;;;;;;27.50;17.05;;;10.60;99.90;;;;;;5063510;28;20296;-73
2023/02/17 08:39:15;;;;;;;23.40;15.02;;;10.60;99.90;;;;;;5077775;28;20316;-72
2023/02/17 08:41:43;;;;;;;21.30;13.25;;;10.60;99.90;;;;;;5068841;28;20222;-73
2023/02/17 08:44:14;;;;;;;24.73;16.13;;;10.60;99.90;;;;;;5067510;28;20231;-72
2023/02/17 08:46:41;;;;;;;19.25;14.38;;;10.60;99.90;;;;;;5060370;28;20208;-75
2023/02/17 08:49:08;;;;;;;24.65;17.23;;;10.70;99.90;;;;;;5066642;28;20228;-75
2023/02/17 08:51:36;;;;;;;24.40;15.45;;;10.60;99.90;;;;;;5066942;28;20237;-71
2023/02/17 08:54:06;;;;;;;23.77;17.20;;;10.70;99.90;;;;;;5075100;28;20293;-71
2023/02/17 08:56:36;;;;;;;24.25;15.32;;;10.70;99.90;;;;;;5075076;28;20201;-73
2023/02/17 08:59:03;;;;;;;28.48;16.48;;;10.70;99.90;;;;;;5060850;28;20280;-72
2023/02/17 09:01:32;;;;;;;26.17;15.75;;;10.70;99.90;;;;;;5062980;28;20251;-72
2023/02/17 09:04:00;;;;;;;26.30;15.38;;;10.70;99.90;;;;;;5056423;28;20271;-73
2023/02/17 09:06:33;;;;;;;27.75;15.10;;;10.70;99.90;;;;;;5068445;28;20653;-73
2023/02/17 09:09:01;;;;;;;27.90;20.10;;;10.70;99.90;;;;;;5069528;28;20497;-74
2023/02/17 09:11:28;;;;;;;31.50;19.38;;;10.90;99.90;;;;;;5068649;28;20619;-74
2023/02/17 09:13:56;;;;;;;34.60;20.08;;;10.90;99.90;;;;;;5064737;28;20224;-75
2023/02/17 09:16:23;;;;;;;37.70;19.25;;;10.80;99.90;;;;;;5060286;28;20255;-73
2023/02/17 09:18:55;;;;;;;31.73;19.38;;;10.90;99.90;;;;;;5062088;28;20202;-74
2023/02/17 09:21:22;;;;;;;27.42;18.15;;;10.80;99.90;;;;;;5059574;28;20615;-73
2023/02/17 09:23:50;;;;;;;30.98;20.73;;;10.90;99.90;;;;;;5064281;28;20280;-74
2023/02/17 09:26:18;;;;;;;32.00;19.40;;;10.80;99.90;;;;;;5067242;28;20204;-74
2023/02/17 09:28:46;;;;;;;38.92;22.08;;;10.90;99.90;;;;;;5067141;28;20204;-75
2023/02/17 09:31:15;;;;;;;35.92;20.10;;;10.90;99.90;;;;;;5062993;28;20226;-74
2023/02/17 09:33:43;;;;;;;37.55;20.58;;;10.90;99.90;;;;;;5063559;28;20251;-74
2023/02/17 09:36:13;;;;;;;41.03;23.67;;;10.90;99.90;;;;;;5061259;28;20203;-74
2023/02/17 09:38:41;;;;;;;31.40;19.92;;;10.90;99.90;;;;;;5059662;28;20210;-75
2023/02/17 09:41:17;;;;;;;38.45;22.95;;;10.90;99.90;;;;;;5066262;28;20230;-74
2023/02/17 09:43:44;;;;;;;31.55;19.92;;;11.00;99.90;;;;;;5067821;28;20207;-75
2023/02/17 09:46:18;;;;;;;39.75;23.50;;;11.10;99.90;;;;;;5063724;28;20714;-74
2023/02/17 09:48:48;;;;;;;30.17;20.48;;;11.10;99.90;;;;;;5069381;28;20194;-73
2023/02/17 09:51:22;;;;;;;36.25;20.42;;;11.10;99.90;;;;;;5076676;28;20227;-72
2023/02/17 09:53:57;;;;;;;32.47;20.92;;;11.10;99.90;;;;;;5064292;28;20210;-75
2023/02/17 09:56:30;;;;;;;32.40;20.17;;;11.10;99.90;;;;;;5067471;28;20196;-74
2023/02/17 09:59:01;;;;;;;31.13;22.08;;;11.10;99.90;;;;;;5072804;28;20258;-73
2023/02/17 10:01:31;;;;;;;33.92;20.85;;;11.20;99.90;;;;;;5068455;28;20221;-75
2023/02/17 10:04:06;;;;;;;31.65;20.95;;;11.20;99.90;;;;;;5065710;28;20250;-74
2023/02/17 10:06:38;;;;;;;27.90;20.05;;;11.20;99.90;;;;;;5065011;28;20278;-74
2023/02/17 10:09:11;;;;;;;30.08;21.73;;;11.30;99.90;;;;;;5062871;28;20565;-74
2023/02/17 10:11:42;;;;;;;27.25;20.33;;;11.30;99.90;;;;;;5070071;28;20312;-73
2023/02/17 10:14:15;;;;;;;26.95;18.05;;;11.30;99.90;;;;;;5068516;28;20217;-72
2023/02/17 10:16:49;;;;;;;26.30;18.67;;;11.40;99.90;;;;;;5063876;28;20201;-74
2023/02/17 10:19:22;;;;;;;28.27;17.63;;;11.50;99.90;;;;;;5070525;28;20240;-73
2023/02/17 10:21:58;;;;;;;27.48;18.58;;;11.50;99.90;;;;;;5064505;28;20222;-74
2023/02/17 10:24:25;;;;;;;26.27;16.60;;;11.60;99.90;;;;;;5066093;28;20201;-74
2023/02/17 10:27:08;;;;;;;26.05;16.80;;;11.70;99.90;;;;;;5064231;28;20265;-74
2023/02/17 10:29:47;;;;;;;29.08;17.80;;;11.70;99.90;;;;;;5059784;28;20206;-74
2023/02/17 10:32:22;;;;;;;28.13;17.15;;;11.70;99.90;;;;;;5053806;28;20245;-74
2023/02/17 10:35:11;;;;;;;28.52;17.23;;;11.80;99.90;;;;;;5055455;28;20198;-73
2023/02/17 10:37:48;;;;;;;22.67;15.50;;;11.80;99.90;;;;;;5061528;28;20557;-71
2023/02/17 10:40:19;;;;;;;27.25;18.08;;;11.90;99.90;;;;;;5067575;28;20297;-73
2023/02/17 10:42:48;;;;;;;24.02;16.67;;;11.90;99.90;;;;;;5068268;28;20199;-73
2023/02/17 10:45:24;;;;;;;23.25;14.65;;;12.00;99.90;;;;;;5064873;28;20200;-73
2023/02/17 10:47:56;;;;;;;22.13;15.57;;;11.90;99.90;;;;;;5061579;28;20230;-74
2023/02/17 10:50:25;;;;;;;25.30;16.77;;;12.00;99.90;;;;;;5062756;28;20241;-75
2023/02/17 10:52:55;;;;;;;24.08;15.82;;;12.00;99.90;;;;;;5067967;28;20214;-74
2023/02/17 10:55:30;;;;;;;23.20;16.25;;;12.00;99.90;;;;;;5063159;28;20215;-75
2023/02/17 10:58:04;;;;;;;23.02;16.35;;;11.90;99.90;;;;;;5065039;28;20288;-74
2023/02/17 11:00:31;;;;;;;25.70;18.35;;;12.00;99.90;;;;;;5054479;28;20214;-73
2023/02/17 11:02:58;;;;;;;22.23;15.55;;;12.00;99.90;;;;;;5063585;28;20660;-73
2023/02/17 11:05:28;;;;;;;22.50;17.15;;;12.00;99.90;;;;;;5065813;28;20720;-75
2023/02/17 11:08:00;;;;;;;27.17;16.15;;;12.00;99.90;;;;;;5067569;28;20242;-73
2023/02/17 11:10:30;;;;;;;21.05;16.80;;;12.00;99.90;;;;;;5059198;28;20226;-74
2023/02/17 11:12:57;;;;;;;31.45;15.55;;;12.10;99.90;;;;;;5059151;28;20211;-73
2023/02/17 11:15:28;;;;;;;22.30;15.40;;;12.10;99.90;;;;;;5069466;28;20234;-74
2023/02/17 11:18:01;;;;;;;19.85;14.35;;;12.00;99.90;;;;;;5063330;28;20238;-73
2023/02/17 11:20:32;;;;;;;24.35;16.13;;;12.10;99.90;;;;;;5060478;28;20260;-73
2023/02/17 11:23:17;;;;;;;23.80;16.05;;;12.10;99.90;;;;;;5058233;28;20934;-73
2023/02/17 11:25:57;;;;;;;23.50;16.05;;;12.10;99.90;;;;;;5076007;28;20219;-73
2023/02/17 11:28:25;;;;;;;21.52;17.30;;;12.10;99.90;;;;;;5066724;28;20213;-75
2023/02/17 11:30:55;;;;;;;20.23;14.82;;;12.20;99.90;;;;;;5058782;28;20216;-72
2023/02/17 11:33:29;;;;;;;23.52;17.10;;;12.10;99.90;;;;;;5061129;28;20247;-74
2023/02/17 11:35:58;;;;;;;24.65;16.70;;;12.10;99.90;;;;;;5058430;28;20554;-74
2023/02/17 11:38:28;;;;;;;19.90;15.45;;;12.10;99.90;;;;;;5062618;28;20207;-73
2023/02/17 11:40:58;;;;;;;20.63;15.55;;;12.10;99.90;;;;;;5060069;28;20281;-75
2023/02/17 11:43:27;;;;;;;21.30;15.13;;;12.00;99.90;;;;;;5058418;28;20249;-72
2023/02/17 11:46:05;;;;;;;18.77;14.75;;;12.00;99.90;;;;;;5069563;28;20194;-73
2023/02/17 11:49:02;;;;;;;21.45;15.90;;;12.00;99.90;;;;;;5062952;28;20205;-74
2023/02/17 11:51:41;;;;;;;23.42;17.95;;;12.00;99.90;;;;;;5054808;28;20222;-75
2023/02/17 11:54:19;;;;;;;22.23;15.93;;;12.00;99.90;;;;;;5058040;28;20676;-74
2023/02/17 11:56:55;;;;;;;25.73;17.70;;;12.00;99.90;;;;;;5064295;28;20259;-73
2023/02/17 11:59:36;;;;;;;22.00;16.40;;;12.00;99.90;;;;;;5063909;28;20207;-75
2023/02/17 12:02:18;;;;;;;24.88;15.05;;;12.10;99.90;;;;;;5063473;28;20708;-75
2023/02/17 12:04:57;;;;;;;20.27;15.98;;;12.10;99.90;;;;;;5056491;28;20600;-75
2023/02/17 12:07:50;;;;;;;25.35;16.60;;;12.10;99.90;;;;;;5057066;28;20229;-73
2023/02/17 12:10:26;;;;;;;26.02;17.55;;;12.10;99.90;;;;;;5056362;28;20716;-75
2023/02/17 12:13:11;;;;;;;28.33;18.90;;;12.00;99.90;;;;;;5065526;28;20257;-73
2023/02/17 12:15:53;;;;;;;25.55;18.30;;;11.90;99.90;;;;;;5063418;28;20205;-75
2023/02/17 12:18:41;;;;;;;27.63;18.55;;;11.80;99.90;;;;;;5068956;28;20209;-73
2023/02/17 12:21:20;;;;;;;33.65;18.00;;;11.80;99.90;;;;;;5064490;28;20674;-73
2023/02/17 12:24:04;;;;;;;29.30;17.85;;;11.70;99.90;;;;;;5061051;28;20202;-73
2023/02/17 12:26:39;;;;;;;26.85;18.42;;;11.60;99.90;;;;;;5058950;28;20556;-73
2023/02/17 12:29:17;;;;;;;24.38;16.98;;;11.60;99.90;;;;;;5061955;28;20686;-72
2023/02/17 12:31:58;;;;;;;23.20;16.80;;;11.50;99.90;;;;;;5064685;28;20708;-72
2023/02/17 12:34:31;;;;;;;25.33;16.00;;;11.50;99.90;;;;;;5065826;28;20225;-71
2023/02/17 12:37:00;;;;;;;26.88;17.52;;;11.50;99.90;;;;;;5067315;28;20229;-73
2023/02/17 12:39:34;;;;;;;30.55;16.52;;;11.50;99.90;;;;;;5064012;28;20289;-73
2023/02/17 12:42:06;;;;;;;21.70;14.70;;;11.50;99.90;;;;;;5059700;28;20750;-73
2023/02/17 12:44:38;;;;;;;21.88;13.85;;;11.40;99.90;;;;;;5059887;28;20209;-73
2023/02/17 12:47:11;;;;;;;20.50;13.23;;;11.50;99.90;;;;;;5054919;28;20287;-74
2023/02/17 12:49:44;;;;;;;21.27;13.10;;;11.50;99.90;;;;;;5056586;28;20218;-74